Time;durP1;ratioP1;P1;durP2;ratioP2;P2;SDS_P1;SDS_P2;PMS_P1;PMS_P2;Temp;Humidity;BMP_temperature;BMP_pressure;BME280_temperature;BME280_humidity;BME280_pressure;Samples;Min_cycle;Max_cycle;Signal;HPM_P1;HPM_P2
2023/07/26 00:00:36;;;;;;;4.03;3.63;;;;;;;11.85;81.29;100888.25;5069712;28;20468;-76
2023/07/26 00:03:01;;;;;;;5.22;3.45;;;;;;;11.89;81.50;100900.28;5067636;28;20020;-76
2023/07/26 00:05:27;;;;;;;4.65;3.40;;;;;;;11.91;81.29;100903.63;5070245;28;20021;-76
2023/07/26 00:07:53;;;;;;;6.35;3.72;;;;;;;11.87;80.90;100896.97;5034566;28;20032;-76
2023/07/26 00:10:19;;;;;;;5.30;3.80;;;;;;;11.90;80.94;100901.97;5064274;28;20036;-76
2023/07/26 00:12:44;;;;;;;5.13;4.15;;;;;;;12.03;80.41;100900.34;5069363;28;20102;-76
2023/07/26 00:15:10;;;;;;;4.85;3.55;;;;;;;12.08;80.32;100901.41;5070287;28;20023;-76
2023/07/26 00:17:35;;;;;;;5.57;3.53;;;;;;;12.11;80.37;100895.56;5070786;28;20029;-76
2023/07/26 00:20:00;;;;;;;4.78;3.75;;;;;;;12.18;79.96;100897.47;5068676;28;20055;-76
2023/07/26 00:22:26;;;;;;;4.95;3.80;;;;;;;12.17;80.21;100896.66;5070147;28;20024;-76
2023/07/26 00:24:51;;;;;;;5.25;3.70;;;;;;;12.10;80.26;100893.09;5069794;28;20041;-76
2023/07/26 00:27:17;;;;;;;4.75;3.85;;;;;;;12.09;80.64;100905.75;5069896;28;20048;-76
2023/07/26 00:29:42;;;;;;;4.78;3.95;;;;;;;12.16;79.73;100894.97;5071402;28;20031;-76
2023/07/26 00:32:08;;;;;;;7.75;4.30;;;;;;;12.12;79.96;100904.53;5071664;28;20078;-76
2023/07/26 00:34:34;;;;;;;4.82;3.92;;;;;;;12.10;80.38;100898.50;5067910;28;20032;-76
2023/07/26 00:37:03;;;;;;;5.90;4.07;;;;;;;12.11;80.08;100905.56;5073459;28;20419;-77
2023/07/26 00:39:29;;;;;;;6.15;4.38;;;;;;;12.16;79.76;100911.19;5070420;28;20020;-76
2023/07/26 00:41:54;;;;;;;5.55;4.40;;;;;;;12.02;80.13;100912.16;5068820;28;20043;-76
2023/07/26 00:44:20;;;;;;;5.07;4.28;;;;;;;12.05;80.74;100906.38;5065929;28;20029;-76
2023/07/26 00:46:45;;;;;;;5.95;4.10;;;;;;;12.07;80.70;100912.41;5072167;28;20103;-76
2023/07/26 00:49:13;;;;;;;5.38;4.13;;;;;;;12.05;80.92;100909.06;5039481;28;20070;-76
2023/07/26 00:51:39;;;;;;;5.10;4.20;;;;;;;12.05;80.80;100912.59;5041132;28;20020;-76
2023/07/26 00:54:05;;;;;;;9.30;4.03;;;;;;;12.06;80.77;100910.72;5085198;22;20049;-77
2023/07/26 00:56:31;;;;;;;6.85;4.20;;;;;;;12.12;81.12;100907.22;5051734;28;20441;-76
2023/07/26 00:58:56;;;;;;;5.82;4.40;;;;;;;12.09;81.08;100913.03;5067692;28;20476;-76
2023/07/26 01:01:21;;;;;;;4.90;4.15;;;;;;;12.09;81.63;100910.31;5051570;28;20025;-76
2023/07/26 01:03:47;;;;;;;6.00;4.28;;;;;;;12.13;81.62;100916.97;5055241;28;20102;-76
2023/07/26 01:06:34;;;;;;;5.60;4.55;;;;;;;12.14;81.87;100907.84;5068839;28;20030;-76
2023/07/26 01:09:24;;;;;;;7.05;4.90;;;;;;;12.28;81.05;100909.50;5066976;28;20044;-76
2023/07/26 01:12:01;;;;;;;5.07;4.57;;;;;;;12.32;81.70;100914.50;5059297;28;20392;-76
2023/07/26 01:14:30;;;;;;;6.85;4.43;;;;;;;12.27;81.61;100907.84;5028993;28;20025;-76
2023/07/26 01:16:55;;;;;;;6.03;4.20;;;;;;;12.35;81.30;100914.09;5065847;28;20030;-76
2023/07/26 01:19:21;;;;;;;8.95;4.63;;;;;;;12.47;81.40;100912.44;5050353;28;20418;-76
2023/07/26 01:21:47;;;;;;;5.13;4.18;;;;;;;12.51;81.39;100910.13;5068638;28;20074;-76
2023/07/26 01:24:12;;;;;;;7.45;4.82;;;;;;;12.35;82.25;100909.50;5078890;28;20013;-75
2023/07/26 01:26:38;;;;;;;10.90;5.10;;;;;;;12.29;82.08;100907.63;5090067;28;20031;-77
2023/07/26 01:29:03;;;;;;;6.05;5.20;;;;;;;12.25;82.48;100906.41;5076123;28;20025;-77
2023/07/26 01:31:31;;;;;;;9.77;5.05;;;;;;;12.26;82.83;100908.06;5067883;28;20074;-76
2023/07/26 01:33:57;;;;;;;6.82;4.93;;;;;;;12.22;83.53;100904.94;5051967;28;20037;-76
2023/07/26 01:36:22;;;;;;;9.25;5.18;;;;;;;12.20;83.82;100911.59;5026976;28;20039;-76
2023/07/26 01:38:48;;;;;;;6.50;5.40;;;;;;;12.12;83.89;100905.34;5054600;28;20472;-76
2023/07/26 01:41:14;;;;;;;7.47;5.63;;;;;;;12.12;84.31;100902.63;5054267;28;20036;-76
2023/07/26 01:43:40;;;;;;;8.13;5.80;;;;;;;12.16;84.18;100907.63;5040744;28;20033;-75
2023/07/26 01:46:05;;;;;;;6.60;5.50;;;;;;;12.08;84.97;100903.25;5062837;28;20032;-76
2023/07/26 01:48:30;;;;;;;7.03;5.40;;;;;;;12.13;84.63;100909.69;5065891;28;20352;-76
2023/07/26 01:50:56;;;;;;;5.80;5.30;;;;;;;12.09;85.24;100911.13;5062195;28;20039;-76
2023/07/26 01:53:24;;;;;;;6.18;5.60;;;;;;;12.10;85.40;100906.59;5068761;28;20044;-76
2023/07/26 01:55:52;;;;;;;6.78;5.18;;;;;;;12.15;84.81;100906.81;5069600;28;20020;-76
2023/07/26 01:58:20;;;;;;;11.77;6.10;;;;;;;12.08;85.37;100908.66;5068799;28;20020;-77
2023/07/26 02:00:46;;;;;;;6.85;6.13;;;;;;;12.12;85.39;100909.91;5059942;28;20070;-76
2023/07/26 02:03:11;;;;;;;6.75;6.05;;;;;;;12.07;85.68;100912.41;5054068;28;20032;-76
2023/07/26 02:05:42;;;;;;;8.27;5.95;;;;;;;12.03;86.08;100911.13;5068452;28;20036;-76
2023/07/26 02:08:08;;;;;;;9.73;6.63;;;;;;;12.01;86.21;100907.81;5061706;28;20028;-76
2023/07/26 02:10:33;;;;;;;9.02;6.45;;;;;;;12.09;86.02;100916.53;5072868;28;20020;-76
2023/07/26 02:12:58;;;;;;;6.57;5.97;;;;;;;12.13;85.90;100906.19;5067080;28;20017;-76
2023/07/26 02:15:24;;;;;;;7.60;6.30;;;;;;;12.07;86.62;100912.41;5053972;28;20025;-76
2023/07/26 02:17:49;;;;;;;9.63;6.38;;;;;;;11.98;87.05;100915.31;5063291;28;20047;-76
2023/07/26 02:20:15;;;;;;;8.50;6.63;;;;;;;11.92;87.34;100909.84;5064939;28;20023;-75
2023/07/26 02:22:40;;;;;;;8.18;6.80;;;;;;;11.90;88.00;100911.94;5064990;28;20050;-77
2023/07/26 02:25:06;;;;;;;7.70;6.47;;;;;;;11.88;88.19;100909.41;5065631;28;20021;-76
2023/07/26 02:27:31;;;;;;;6.75;6.13;;;;;;;11.91;87.92;100911.72;5060820;28;20090;-77
2023/07/26 02:29:56;;;;;;;7.53;5.90;;;;;;;11.92;88.19;100910.69;5068838;28;20036;-76
2023/07/26 02:32:22;;;;;;;6.35;5.55;;;;;;;11.92;87.71;100910.69;5061573;28;20028;-77
2023/07/26 02:34:47;;;;;;;8.20;6.10;;;;;;;11.90;88.00;100911.94;5055580;28;20503;-77
2023/07/26 02:37:13;;;;;;;9.88;6.57;;;;;;;11.78;88.76;100909.00;5060083;28;20028;-77
2023/07/26 02:39:38;;;;;;;7.78;6.90;;;;;;;11.76;88.58;100908.38;5066110;28;20027;-75
2023/07/26 02:42:04;;;;;;;8.98;6.90;;;;;;;11.71;88.78;100906.28;5061906;28;20024;-75
2023/07/26 02:44:29;;;;;;;8.13;7.10;;;;;;;11.54;89.21;100897.72;5070082;28;20455;-75
2023/07/26 02:46:54;;;;;;;7.40;6.63;;;;;;;11.60;89.30;100902.31;5069218;28;20043;-75
2023/07/26 02:49:20;;;;;;;11.70;6.55;;;;;;;11.45;89.58;100898.94;5057283;28;20043;-75
2023/07/26 02:51:45;;;;;;;7.07;6.43;;;;;;;11.49;89.97;100905.56;5072037;28;20396;-75
2023/07/26 02:54:10;;;;;;;6.68;6.03;;;;;;;11.44;89.71;100906.19;5060472;28;20472;-75
2023/07/26 02:56:36;;;;;;;6.50;5.70;;;;;;;11.46;89.17;100909.50;5058402;28;20016;-75
2023/07/26 02:59:01;;;;;;;6.35;5.75;;;;;;;11.42;89.12;100899.34;5055765;28;20037;-77
2023/07/26 03:01:27;;;;;;;6.78;5.75;;;;;;;11.34;88.66;100901.16;5061757;28;20029;-76
2023/07/26 03:03:52;;;;;;;6.70;5.50;;;;;;;11.34;88.74;100903.03;5072728;28;20047;-77
2023/07/26 03:06:18;;;;;;;6.45;5.80;;;;;;;11.22;89.06;100906.28;5072057;28;20027;-77
2023/07/26 03:08:43;;;;;;;7.95;6.05;;;;;;;11.27;89.57;100900.31;5058217;28;20021;-77
2023/07/26 03:11:09;;;;;;;6.57;5.75;;;;;;;11.33;88.86;100899.50;5053920;28;20544;-77
2023/07/26 03:13:34;;;;;;;7.72;5.80;;;;;;;11.28;88.70;100904.69;5061037;28;20102;-77
2023/07/26 03:15:59;;;;;;;6.40;5.80;;;;;;;11.17;88.82;100905.22;5063079;28;20041;-76
2023/07/26 03:18:25;;;;;;;9.85;6.05;;;;;;;11.23;88.89;100904.44;5068819;28;20031;-76
2023/07/26 03:20:51;;;;;;;6.30;5.70;;;;;;;11.22;89.16;100906.28;5064139;28;20410;-77
2023/07/26 03:23:16;;;;;;;7.50;6.15;;;;;;;11.20;89.53;100907.53;5069977;28;20036;-77
2023/07/26 03:25:42;;;;;;;8.82;6.57;;;;;;;11.22;89.34;100911.69;5053245;28;20025;-76
2023/07/26 03:28:07;;;;;;;8.70;6.30;;;;;;;11.20;89.84;100912.91;5064039;28;20040;-77
2023/07/26 03:30:32;;;;;;;7.50;6.80;;;;;;;11.06;90.39;100912.00;5066328;28;20025;-77
2023/07/26 03:32:58;;;;;;;8.75;7.18;;;;;;;11.03;91.04;100921.31;5069589;28;20109;-76
2023/07/26 03:35:23;;;;;;;9.48;7.07;;;;;;;10.96;91.38;100916.94;5057592;28;20025;-76
2023/07/26 03:37:49;;;;;;;8.18;7.20;;;;;;;10.96;91.42;100923.13;5041445;28;20027;-77
2023/07/26 03:40:14;;;;;;;10.20;7.35;;;;;;;10.93;91.48;100920.88;5063573;28;20029;-76
2023/07/26 03:42:40;;;;;;;7.57;6.88;;;;;;;10.77;92.33;100919.28;5056696;28;20024;-76
2023/07/26 03:45:06;;;;;;;8.52;7.55;;;;;;;10.69;93.21;100922.13;5046699;28;20464;-77
2023/07/26 03:47:31;;;;;;;9.15;7.55;;;;;;;10.75;93.32;100927.59;5063598;28;20706;-76
2023/07/26 03:49:59;;;;;;;8.13;7.13;;;;;;;10.79;93.43;100927.16;5060180;28;20029;-77
2023/07/26 03:52:25;;;;;;;9.27;7.95;;;;;;;10.71;93.87;100926.31;5066153;28;20055;-77
2023/07/26 03:54:50;;;;;;;9.60;7.72;;;;;;;10.73;93.90;100923.41;5054201;28;20082;-77
2023/07/26 03:57:16;;;;;;;8.80;7.90;;;;;;;10.66;94.33;100922.53;5063947;28;20024;-76
2023/07/26 03:59:41;;;;;;;8.48;7.63;;;;;;;10.74;94.10;100925.06;5063894;28;20439;-77
2023/07/26 04:02:08;;;;;;;9.27;8.25;;;;;;;10.76;94.11;100926.56;5061718;28;20025;-77
2023/07/26 04:04:33;;;;;;;9.40;7.95;;;;;;;10.82;94.29;100934.84;5070108;28;20020;-77
2023/07/26 04:06:58;;;;;;;9.57;8.20;;;;;;;10.83;94.20;100928.44;5052969;28;20035;-77
2023/07/26 04:09:24;;;;;;;8.85;7.95;;;;;;;10.84;94.41;100924.72;5051134;28;20021;-76
2023/07/26 04:11:54;;;;;;;9.52;8.35;;;;;;;10.81;94.89;100930.50;5059569;28;20050;-80
2023/07/26 04:14:20;;;;;;;11.13;8.93;;;;;;;10.88;95.24;100932.19;5059289;28;20336;-78
2023/07/26 04:16:45;;;;;;;10.95;9.07;;;;;;;10.87;95.36;100930.53;5066733;28;20032;-78
2023/07/26 04:19:11;;;;;;;9.65;8.57;;;;;;;10.94;95.31;100929.75;5068392;22;20061;-81
2023/07/26 04:21:36;;;;;;;10.98;8.52;;;;;;;10.98;94.88;100931.84;5062813;28;20025;-76
2023/07/26 04:24:01;;;;;;;10.52;8.52;;;;;;;11.00;94.95;100934.38;5069776;28;20411;-75
2023/07/26 04:26:27;;;;;;;9.55;8.55;;;;;;;11.00;94.94;100937.06;5065098;28;20082;-75
2023/07/26 04:28:52;;;;;;;12.30;8.75;;;;;;;10.99;95.01;100933.53;5064923;28;20020;-75
2023/07/26 04:31:17;;;;;;;9.25;8.32;;;;;;;11.08;94.66;100942.28;5065198;28;20028;-74
2023/07/26 04:33:43;;;;;;;11.75;7.97;;;;;;;11.12;94.30;100938.16;5065811;28;20071;-75
2023/07/26 04:36:08;;;;;;;10.93;8.48;;;;;;;11.20;93.70;100939.88;5059505;28;20047;-75
2023/07/26 04:38:34;;;;;;;8.90;8.00;;;;;;;11.18;93.45;100937.38;5055129;28;20024;-75
2023/07/26 04:40:59;;;;;;;9.40;7.65;;;;;;;11.27;93.35;100940.75;5073351;28;20035;-74
2023/07/26 04:43:24;;;;;;;8.98;8.00;;;;;;;11.32;93.23;100943.66;5071301;28;20049;-75
2023/07/26 04:45:50;;;;;;;8.98;7.55;;;;;;;11.40;92.81;100944.53;5054255;28;20090;-75
2023/07/26 04:48:16;;;;;;;10.15;7.75;;;;;;;11.34;92.25;100944.28;5051598;28;20063;-75
2023/07/26 04:50:42;;;;;;;10.05;7.68;;;;;;;11.44;92.12;100943.09;5059808;28;20025;-75
2023/07/26 04:53:08;;;;;;;8.63;7.55;;;;;;;11.53;91.62;100944.56;5061929;28;20021;-75
2023/07/26 04:55:39;;;;;;;9.05;7.90;;;;;;;11.59;90.97;100945.63;5052335;28;20032;-75
2023/07/26 04:58:05;;;;;;;8.98;7.47;;;;;;;11.44;91.22;100945.78;5050955;28;20034;-75
2023/07/26 05:00:30;;;;;;;9.95;8.05;;;;;;;11.57;91.08;100948.53;5061399;28;20028;-75
2023/07/26 05:02:55;;;;;;;9.00;8.10;;;;;;;11.67;90.11;100946.28;5056885;28;20418;-75
2023/07/26 05:05:21;;;;;;;8.55;7.65;;;;;;;11.77;89.92;100948.59;5061514;28;20032;-75
2023/07/26 05:07:46;;;;;;;9.30;7.55;;;;;;;11.82;88.69;100948.03;5054134;28;20031;-75
2023/07/26 05:10:11;;;;;;;8.48;7.65;;;;;;;11.86;88.99;100946.56;5061837;28;20031;-75
2023/07/26 05:12:37;;;;;;;10.10;7.75;;;;;;;12.03;87.99;100951.59;5056551;28;20427;-74
2023/07/26 05:15:03;;;;;;;8.95;8.05;;;;;;;12.46;87.01;100953.13;5066859;28;20039;-75
2023/07/26 05:17:28;;;;;;;10.45;7.30;;;;;;;13.40;82.60;100959.28;5066765;22;20055;-74
2023/07/26 05:19:53;;;;;;;8.65;7.75;;;;;;;14.24;78.60;100953.81;5048573;28;20030;-75
2023/07/26 05:22:19;;;;;;;7.72;6.93;;;;;;;14.98;74.03;100955.97;5042333;28;20037;-75
2023/07/26 05:24:44;;;;;;;7.97;7.10;;;;;;;15.85;69.90;100956.88;5044352;28;20103;-75
2023/07/26 05:27:13;;;;;;;7.28;6.53;;;;;;;16.95;66.09;100970.22;5042879;28;20030;-75
2023/07/26 05:29:38;;;;;;;7.80;6.95;;;;;;;17.34;64.69;100977.84;5049401;28;20025;-76
2023/07/26 05:32:04;;;;;;;7.35;6.65;;;;;;;18.21;61.07;100969.75;5034600;28;20496;-76
2023/07/26 05:34:29;;;;;;;7.93;7.20;;;;;;;18.02;60.97;100964.53;5050008;28;20383;-76
2023/07/26 05:36:54;;;;;;;9.02;6.55;;;;;;;17.24;63.58;100961.31;5048436;28;20029;-75
2023/07/26 05:39:20;;;;;;;8.32;7.40;;;;;;;16.59;65.82;100965.81;5042794;28;20028;-75
2023/07/26 05:41:45;;;;;;;9.57;7.30;;;;;;;15.84;68.67;100960.59;5042655;28;20465;-75
2023/07/26 05:44:11;;;;;;;9.90;7.38;;;;;;;15.53;70.29;100958.91;5041345;28;20071;-75
2023/07/26 05:46:36;;;;;;;7.60;6.85;;;;;;;15.60;70.03;100954.25;5041557;28;20028;-75
2023/07/26 05:49:01;;;;;;;8.73;7.35;;;;;;;15.58;70.36;100946.31;5044060;28;20044;-75
2023/07/26 05:51:27;;;;;;;9.88;7.38;;;;;;;15.41;72.28;100950.69;5045877;28;20050;-75
2023/07/26 05:53:52;;;;;;;7.95;7.13;;;;;;;16.28;68.80;100957.72;5036549;28;20492;-75
2023/07/26 05:56:18;;;;;;;7.68;6.88;;;;;;;16.78;67.04;100959.19;5053404;28;20028;-75
2023/07/26 05:58:43;;;;;;;9.00;6.90;;;;;;;16.90;66.62;100952.94;5027256;28;20027;-76
2023/07/26 06:01:09;;;;;;;7.78;6.68;;;;;;;17.55;64.58;100942.91;5049933;28;20033;-75
2023/07/26 06:03:37;;;;;;;7.80;7.00;;;;;;;18.12;62.14;100952.19;5033745;28;20036;-75
2023/07/26 06:06:02;;;;;;;7.10;6.35;;;;;;;18.32;61.05;100946.25;5036871;28;20033;-75
2023/07/26 06:08:28;;;;;;;8.05;6.60;;;;;;;18.89;60.26;100947.13;5034390;28;20353;-75
2023/07/26 06:10:53;;;;;;;8.10;7.00;;;;;;;18.87;59.74;100947.41;5043872;28;20025;-75
2023/07/26 06:13:18;;;;;;;10.23;6.78;;;;;;;19.68;57.62;100947.91;5031747;28;20381;-74
2023/07/26 06:15:44;;;;;;;7.30;6.53;;;;;;;19.33;57.20;100951.84;5041289;28;20346;-75
2023/07/26 06:18:09;;;;;;;6.82;6.00;;;;;;;20.11;56.02;100951.66;5049358;28;20109;-74
2023/07/26 06:20:35;;;;;;;9.13;5.90;;;;;;;19.98;55.14;100950.16;5042234;28;20033;-74
2023/07/26 06:23:00;;;;;;;7.40;6.30;;;;;;;19.59;56.61;100957.66;5038071;28;20595;-73
2023/07/26 06:25:26;;;;;;;7.38;6.05;;;;;;;20.13;55.54;100954.94;5033262;28;20021;-76
2023/07/26 06:27:51;;;;;;;6.45;5.85;;;;;;;21.04;54.11;100957.03;5048249;28;20019;-74
2023/07/26 06:30:17;;;;;;;7.50;5.47;;;;;;;23.20;47.57;100961.19;5053180;28;20059;-74
2023/07/26 06:32:42;;;;;;;6.22;5.15;;;;;;;22.70;47.34;100963.78;5035062;28;20029;-75
2023/07/26 06:35:10;;;;;;;6.40;5.80;;;;;;;21.87;49.25;100974.66;5050796;28;20453;-75
2023/07/26 06:37:36;;;;;;;6.22;5.53;;;;;;;20.90;51.50;100968.47;5036430;28;20396;-75
2023/07/26 06:40:02;;;;;;;6.32;5.75;;;;;;;19.74;54.32;100970.63;5051251;28;20027;-74
2023/07/26 06:42:27;;;;;;;7.28;5.88;;;;;;;18.56;58.76;100976.09;5043457;28;20110;-74
2023/07/26 06:44:52;;;;;;;8.65;6.18;;;;;;;18.09;60.43;100980.72;5052526;28;20044;-74
2023/07/26 06:47:20;;;;;;;6.68;6.03;;;;;;;17.76;62.27;100978.72;5051065;28;20480;-74
2023/07/26 06:49:46;;;;;;;7.05;6.15;;;;;;;17.99;61.43;100973.22;5053943;28;20514;-74
2023/07/26 06:52:11;;;;;;;6.63;5.97;;;;;;;17.75;62.06;100980.59;5052274;28;20083;-76
2023/07/26 06:54:37;;;;;;;7.28;6.53;;;;;;;17.22;64.31;100987.94;5044258;28;20094;-74
2023/07/26 06:57:02;;;;;;;9.60;6.50;;;;;;;17.34;64.20;100988.75;5052324;28;20045;-73
2023/07/26 06:59:28;;;;;;;11.95;7.53;;;;;;;16.60;66.73;100989.19;5030525;28;20033;-75
2023/07/26 07:01:53;;;;;;;7.95;7.07;;;;;;;16.36;67.44;100991.88;5038021;28;20024;-75
2023/07/26 07:04:19;;;;;;;9.55;7.18;;;;;;;16.18;68.24;100998.16;5049870;28;20041;-76
2023/07/26 07:06:44;;;;;;;9.50;6.85;;;;;;;16.21;68.62;100993.13;5046507;28;20029;-74
2023/07/26 07:09:09;;;;;;;7.82;7.13;;;;;;;15.87;69.74;101003.63;5048746;28;20473;-75
2023/07/26 07:11:35;;;;;;;8.55;7.75;;;;;;;15.95;70.00;101007.06;5043668;28;20028;-75
2023/07/26 07:14:00;;;;;;;8.65;7.60;;;;;;;16.00;70.54;101007.22;5035812;28;20037;-75
2023/07/26 07:16:26;;;;;;;8.40;7.40;;;;;;;16.27;70.51;101013.09;5040383;28;20039;-75
2023/07/26 07:18:51;;;;;;;8.55;7.65;;;;;;;16.97;67.15;101021.63;5038314;28;20041;-75
2023/07/26 07:21:16;;;;;;;8.93;8.02;;;;;;;16.73;68.02;101027.03;5031243;28;20037;-75
2023/07/26 07:23:42;;;;;;;10.35;8.00;;;;;;;17.28;65.88;101027.81;5039016;28;20033;-75
2023/07/26 07:26:07;;;;;;;9.80;7.63;;;;;;;17.64;64.62;101028.59;5047388;28;20032;-74
2023/07/26 07:28:33;;;;;;;8.73;7.57;;;;;;;17.83;64.27;101031.13;5049965;28;20473;-74
2023/07/26 07:30:58;;;;;;;9.57;7.25;;;;;;;18.44;62.14;101038.84;5043683;28;20025;-74
2023/07/26 07:33:24;;;;;;;7.85;7.15;;;;;;;18.59;61.19;101028.22;5050128;28;20457;-74
2023/07/26 07:35:49;;;;;;;9.18;7.85;;;;;;;18.44;62.07;101041.56;5049560;28;20028;-74
2023/07/26 07:38:15;;;;;;;9.98;7.63;;;;;;;18.36;62.11;101033.78;5051361;28;20406;-75
2023/07/26 07:40:41;;;;;;;8.73;7.45;;;;;;;17.63;63.97;101032.38;5043319;28;20147;-75
2023/07/26 07:43:06;;;;;;;8.73;7.18;;;;;;;17.56;64.84;101034.38;5049824;28;20463;-75
2023/07/26 07:45:32;;;;;;;7.85;7.05;;;;;;;17.39;65.57;101026.97;5050730;28;20029;-74
2023/07/26 07:47:57;;;;;;;9.18;7.28;;;;;;;17.49;65.77;101034.53;5032503;28;20037;-74
2023/07/26 07:50:23;;;;;;;8.65;7.50;;;;;;;17.60;65.33;101035.56;5049940;28;20060;-74
2023/07/26 07:52:48;;;;;;;7.78;6.75;;;;;;;17.26;65.63;101032.66;5047155;28;20041;-74
2023/07/26 07:55:14;;;;;;;7.82;7.13;;;;;;;17.26;66.00;101030.75;5046287;28;20017;-75
2023/07/26 07:57:40;;;;;;;8.75;6.68;;;;;;;17.92;63.71;101037.84;5040756;28;20123;-74
2023/07/26 08:00:07;;;;;;;7.72;6.65;;;;;;;17.99;62.94;101046.75;5039578;28;20040;-73
2023/07/26 08:02:33;;;;;;;7.78;6.50;;;;;;;18.10;63.40;101049.66;5040251;28;20033;-73
2023/07/26 08:04:58;;;;;;;11.50;7.32;;;;;;;18.63;62.60;101053.06;5034758;28;20074;-74
2023/07/26 08:07:24;;;;;;;7.43;5.95;;;;;;;19.05;60.97;101052.72;5050052;28;20097;-73
2023/07/26 08:09:49;;;;;;;7.63;6.80;;;;;;;18.36;64.00;101048.25;5040712;28;20222;-73
2023/07/26 08:12:15;;;;;;;7.60;6.80;;;;;;;18.04;66.57;101059.66;5039106;28;20021;-73
2023/07/26 08:14:41;;;;;;;6.93;6.28;;;;;;;17.53;68.46;101053.91;5041897;28;20037;-73
2023/07/26 08:17:07;;;;;;;9.23;6.45;;;;;;;17.28;68.22;101055.03;5045882;28;20029;-73
2023/07/26 08:19:32;;;;;;;9.80;6.78;;;;;;;17.02;69.27;101057.13;5033983;28;20092;-73
2023/07/26 08:21:57;;;;;;;7.85;6.50;;;;;;;17.12;68.76;101054.63;5038673;28;20033;-73
2023/07/26 08:24:25;;;;;;;7.15;6.30;;;;;;;17.10;67.81;101062.22;5031136;28;20033;-73
2023/07/26 08:26:51;;;;;;;8.20;6.78;;;;;;;16.89;69.01;101047.25;5047774;28;20025;-73
2023/07/26 08:29:20;;;;;;;11.05;7.57;;;;;;;16.74;70.07;101060.47;5039314;28;20484;-73
2023/07/26 08:31:45;;;;;;;9.43;7.70;;;;;;;16.47;71.03;101048.13;5048193;28;20057;-73
2023/07/26 08:34:10;;;;;;;10.25;7.88;;;;;;;16.73;70.68;101062.38;5047139;28;20040;-73
2023/07/26 08:36:38;;;;;;;13.73;8.45;;;;;;;16.53;72.16;101054.50;5048869;28;20469;-72
2023/07/26 08:39:04;;;;;;;11.50;10.02;;;;;;;16.34;72.88;101051.84;5041986;28;20021;-72
2023/07/26 08:41:30;;;;;;;10.60;9.45;;;;;;;16.60;72.68;101054.41;5035764;28;20031;-73
2023/07/26 08:43:55;;;;;;;14.35;10.50;;;;;;;16.73;73.87;101051.50;5025773;28;20029;-73
2023/07/26 08:46:21;;;;;;;12.20;10.07;;;;;;;17.15;72.38;101045.19;5040381;28;20028;-74
2023/07/26 08:48:46;;;;;;;13.68;10.57;;;;;;;17.55;70.05;101049.06;5033022;28;20025;-73
2023/07/26 08:51:11;;;;;;;12.05;10.55;;;;;;;17.73;68.98;101050.81;5026903;28;20034;-73
2023/07/26 08:53:37;;;;;;;11.02;9.93;;;;;;;17.70;67.88;101052.13;5045793;28;20385;-73
2023/07/26 08:56:03;;;;;;;13.50;9.90;;;;;;;17.84;68.70;101058.13;5024781;28;20067;-73
2023/07/26 08:58:29;;;;;;;9.98;8.57;;;;;;;17.72;67.27;101046.44;5041878;28;20074;-73
2023/07/26 09:00:54;;;;;;;7.88;6.13;;;;;;;18.23;63.29;101051.28;5033134;28;20377;-73
2023/07/26 09:03:19;;;;;;;3.35;3.05;;;;;;;19.44;56.43;101046.44;5049191;28;20025;-74
2023/07/26 09:05:45;;;;;;;2.58;2.20;;;;;;;19.64;53.45;101034.16;5023172;28;20086;-73
2023/07/26 09:08:11;;;;;;;1.67;1.58;;;;;;;21.68;47.28;101033.78;5040314;28;20025;-73
2023/07/26 09:10:37;;;;;;;2.55;1.80;;;;;;;22.64;45.04;101034.31;5041796;28;20025;-73
2023/07/26 09:13:09;;;;;;;1.70;1.60;;;;;;;23.31;41.97;101027.91;5040674;28;20508;-74
2023/07/26 09:15:41;;;;;;;1.70;1.60;;;;;;;24.10;40.87;101032.03;5042267;28;20433;-73
2023/07/26 09:18:08;;;;;;;1.33;1.23;;;;;;;23.60;41.05;101032.78;5040950;28;20045;-73
2023/07/26 09:20:34;;;;;;;1.20;1.10;;;;;;;24.02;39.33;101026.00;5034844;28;20547;-74
2023/07/26 09:23:05;;;;;;;1.20;1.02;;;;;;;23.49;40.27;101014.66;5041560;28;20055;-74
2023/07/26 09:25:32;;;;;;;1.10;1.00;;;;;;;25.10;37.34;101026.28;5045162;28;20255;-74
2023/07/26 09:28:01;;;;;;;0.90;0.90;;;;;;;24.03;39.25;101015.84;5046179;28;20024;-74
2023/07/26 09:30:26;;;;;;;1.00;0.90;;;;;;;25.85;35.49;101024.88;5042451;28;20029;-74
2023/07/26 09:32:52;;;;;;;1.15;0.85;;;;;;;26.09;35.23;101018.50;5034523;28;20485;-74
2023/07/26 09:35:20;;;;;;;1.27;1.17;;;;;;;26.16;35.82;101013.44;5039760;28;20047;-75
2023/07/26 09:37:46;;;;;;;1.10;1.00;;;;;;;23.87;40.23;101004.06;5007931;28;20024;-73
2023/07/26 09:40:11;;;;;;;1.48;1.20;;;;;;;24.39;38.84;101012.84;5049759;28;20032;-74
2023/07/26 09:42:44;;;;;;;0.90;0.90;;;;;;;25.58;37.16;101020.81;5043454;28;20036;-74
2023/07/26 09:45:19;;;;;;;3.05;1.15;;;;;;;23.76;40.11;101020.63;5047992;28;20066;-74
2023/07/26 09:47:44;;;;;;;1.30;1.20;;;;;;;24.83;38.04;101011.94;5039134;28;20030;-74
2023/07/26 09:50:26;;;;;;;1.20;1.10;;;;;;;24.76;37.66;101018.91;5041220;28;20031;-74
2023/07/26 09:52:55;;;;;;;1.60;0.98;;;;;;;24.41;38.07;101020.81;5053038;28;20035;-74
2023/07/26 09:55:26;;;;;;;1.15;1.05;;;;;;;25.91;36.41;101008.28;5043610;28;20049;-74
2023/07/26 09:57:55;;;;;;;3.42;1.23;;;;;;;25.73;35.26;101018.97;5045801;28;20076;-74
2023/07/26 10:00:23;;;;;;;1.40;1.30;;;;;;;24.73;38.25;101005.72;5052423;28;20033;-74
2023/07/26 10:02:58;;;;;;;1.48;1.35;;;;;;;24.18;39.06;101006.69;5046295;28;20038;-74
2023/07/26 10:05:25;;;;;;;1.60;1.50;;;;;;;23.57;40.66;101009.41;5050900;28;20082;-74
2023/07/26 10:07:50;;;;;;;1.55;1.38;;;;;;;24.95;38.34;101003.28;5048999;28;20024;-74
2023/07/26 10:10:16;;;;;;;3.25;1.58;;;;;;;25.65;37.13;101003.09;5025967;28;20026;-75
2023/07/26 10:12:44;;;;;;;1.58;1.48;;;;;;;25.53;36.92;101004.34;5034746;28;20067;-74
2023/07/26 10:15:10;;;;;;;1.70;1.60;;;;;;;24.29;38.21;100999.16;5044542;28;20026;-74
2023/07/26 10:17:35;;;;;;;1.67;1.58;;;;;;;25.00;38.70;100998.84;5022814;28;20037;-74
2023/07/26 10:20:02;;;;;;;2.20;2.00;;;;;;;24.75;38.93;100993.31;5029477;28;20074;-74
2023/07/26 10:22:27;;;;;;;2.47;2.28;;;;;;;24.60;39.03;100991.47;5043378;28;20029;-74
2023/07/26 10:24:53;;;;;;;2.95;2.22;;;;;;;23.78;40.96;100987.34;5025947;28;20383;-74
2023/07/26 10:27:19;;;;;;;2.70;2.30;;;;;;;24.95;39.33;100991.47;5035214;28;20548;-74
2023/07/26 10:29:45;;;;;;;2.35;2.15;;;;;;;25.07;38.67;100993.81;5019752;28;20509;-74
2023/07/26 10:32:11;;;;;;;4.43;2.45;;;;;;;25.35;39.13;100999.56;5051784;28;20033;-74
2023/07/26 10:34:36;;;;;;;3.13;2.50;;;;;;;24.54;40.25;100992.63;5043308;28;20034;-74
2023/07/26 10:37:13;;;;;;;4.78;2.63;;;;;;;25.48;39.90;100998.06;5038349;28;20021;-74
2023/07/26 10:39:39;;;;;;;3.97;2.10;;;;;;;27.18;36.62;101003.72;5029910;28;20029;-74
2023/07/26 10:42:04;;;;;;;3.72;2.95;;;;;;;27.20;35.50;100998.72;5028890;28;20097;-74
2023/07/26 10:44:40;;;;;;;4.07;2.70;;;;;;;26.63;35.67;100996.16;5025858;28;20041;-74
2023/07/26 10:47:06;;;;;;;3.22;2.90;;;;;;;27.06;35.80;101001.44;5028333;28;20037;-74
2023/07/26 10:49:33;;;;;;;4.35;3.10;;;;;;;26.01;37.85;100988.81;5050920;28;20036;-74
2023/07/26 10:52:02;;;;;;;3.40;3.10;;;;;;;26.35;37.48;100987.75;5036816;28;20448;-74
2023/07/26 10:54:48;;;;;;;5.05;3.33;;;;;;;26.22;36.71;100986.56;5048400;28;20056;-74
2023/07/26 10:57:14;;;;;;;4.82;3.53;;;;;;;26.19;37.55;100989.97;5038386;28;20025;-75
2023/07/26 11:00:09;;;;;;;4.93;3.33;;;;;;;26.08;38.26;100983.75;5049364;28;20090;-74
2023/07/26 11:02:48;;;;;;;4.07;3.25;;;;;;;25.46;39.89;100981.00;5036254;28;20051;-74
2023/07/26 11:05:20;;;;;;;5.15;3.65;;;;;;;25.24;38.52;100976.81;5037452;28;20030;-74
2023/07/26 11:07:52;;;;;;;4.47;3.47;;;;;;;24.92;38.92;100984.59;5032752;28;20040;-74
2023/07/26 11:10:18;;;;;;;4.95;4.00;;;;;;;23.82;41.17;100971.94;5037811;28;20052;-74
2023/07/26 11:12:44;;;;;;;5.85;4.72;;;;;;;23.53;43.08;100969.88;5040753;28;20464;-74
2023/07/26 11:15:09;;;;;;;5.15;4.38;;;;;;;23.48;43.85;100961.66;5033508;28;20029;-73
2023/07/26 11:17:40;;;;;;;5.72;4.40;;;;;;;23.21;44.09;100982.06;5044113;28;20018;-74
2023/07/26 11:20:06;;;;;;;6.60;4.32;;;;;;;22.61;45.28;100981.88;5042051;28;20083;-74